Private Wetterstation Sandau
Wetterdaten: Donnerstag, 31.01.2013
Datum Zeit Temp. A. Feuchte A. Luftdruck Regen Wind Richtung Richtung Taupunkt Windchill
31.01.2013 00:01 7,1 C 80 % 1003,2 hPa 0,5 l/m 20,5 km/h (4 Bft) W 270 3,9 C 3,7 C
31.01.2013 00:06 6,8 C 82 % 1003,4 hPa 0,5 l/m 29,2 km/h (5 Bft) NW 315 3,9 C 2,5 C
31.01.2013 00:11 6,3 C 84 % 1003,9 hPa 1,0 l/m 19,1 km/h (3 Bft) W 270 3,8 C 2,8 C
31.01.2013 00:16 5,9 C 85 % 1004,2 hPa 0,0 l/m 35,6 km/h (5 Bft) W-NW 292 3,6 C 0,8 C
31.01.2013 00:21 5,8 C 86 % 1004,1 hPa 0,5 l/m 13,0 km/h (3 Bft) W-NW 292 3,6 C 3,1 C
31.01.2013 00:26 5,6 C 86 % 1004,3 hPa 0,0 l/m 17,6 km/h (3 Bft) W-NW 292 3,4 C 2,1 C
31.01.2013 00:31 5,4 C 87 % 1004,4 hPa 0,5 l/m 32,0 km/h (5 Bft) W-NW 292 3,4 C 0,4 C
31.01.2013 00:36 5,3 C 87 % 1004,2 hPa 0,0 l/m 35,3 km/h (5 Bft) NW 315 3,3 C 0,0 C
31.01.2013 00:41 5,3 C 87 % 1004,0 hPa 0,0 l/m 8,6 km/h (2 Bft) W-NW 292 3,3 C 3,3 C
31.01.2013 00:46 5,2 C 86 % 1004,1 hPa 0,0 l/m 14,4 km/h (3 Bft) W-NW 292 3,1 C 2,1 C
31.01.2013 00:51 5,2 C 86 % 1004,2 hPa 0,0 l/m 12,6 km/h (3 Bft) W-NW 292 3,1 C 2,4 C
31.01.2013 00:56 5,2 C 86 % 1004,5 hPa 0,0 l/m 21,6 km/h (4 Bft) W-SW 247 3,1 C 1,1 C
31.01.2013 01:01 5,1 C 86 % 1004,6 hPa 0,0 l/m 24,1 km/h (4 Bft) W 270 3,0 C 0,7 C
31.01.2013 01:06 5,0 C 86 % 1004,2 hPa 0,0 l/m 15,8 km/h (3 Bft) W-NW 292 2,9 C 1,6 C
31.01.2013 01:11 5,1 C 87 % 1004,1 hPa 0,0 l/m 20,9 km/h (4 Bft) NW 315 3,1 C 1,1 C
31.01.2013 01:16 5,3 C 86 % 1004,4 hPa 0,0 l/m 32,8 km/h (5 Bft) W 270 3,2 C 0,2 C
31.01.2013 01:21 5,5 C 86 % 1004,4 hPa 0,0 l/m 27,7 km/h (4 Bft) W 270 3,3 C 0,9 C
31.01.2013 01:26 5,5 C 86 % 1004,3 hPa 0,0 l/m 9,7 km/h (2 Bft) W-NW 292 3,3 C 3,3 C
31.01.2013 01:31 5,5 C 86 % 1004,5 hPa 0,0 l/m 8,6 km/h (2 Bft) W-NW 292 3,3 C 3,6 C
31.01.2013 01:36 5,4 C 87 % 1004,5 hPa 0,0 l/m 15,8 km/h (3 Bft) W 270 3,4 C 2,1 C
31.01.2013 01:41 5,3 C 87 % 1004,6 hPa 0,0 l/m 14,4 km/h (3 Bft) W-SW 247 3,3 C 2,2 C
31.01.2013 01:46 5,3 C 87 % 1004,4 hPa 0,0 l/m 37,4 km/h (5 Bft) W 270 3,3 C -0,1 C
31.01.2013 01:51 5,3 C 87 % 1004,4 hPa 0,0 l/m 16,6 km/h (3 Bft) W 270 3,3 C 1,9 C
31.01.2013 01:56 5,3 C 86 % 1004,4 hPa 0,0 l/m 27,7 km/h (4 Bft) W 270 3,2 C 0,6 C
31.01.2013 02:01 5,3 C 86 % 1004,5 hPa 0,0 l/m 25,6 km/h (4 Bft) W-SW 247 3,2 C 0,8 C
31.01.2013 02:06 5,4 C 85 % 1004,7 hPa 0,0 l/m 6,1 km/h (2 Bft) W-NW 292 3,1 C 4,2 C
31.01.2013 02:11 5,5 C 84 % 1004,8 hPa 0,0 l/m 16,6 km/h (3 Bft) NW 315 3,0 C 2,1 C
31.01.2013 02:16 5,6 C 84 % 1004,8 hPa 0,0 l/m 14,8 km/h (3 Bft) W 270 3,1 C 2,5 C
31.01.2013 02:21 5,6 C 84 % 1004,9 hPa 0,0 l/m 20,2 km/h (4 Bft) W 270 3,1 C 1,8 C
31.01.2013 02:26 5,6 C 85 % 1005,0 hPa 0,0 l/m 18,0 km/h (3 Bft) W-NW 292 3,3 C 2,1 C
31.01.2013 02:31 5,8 C 84 % 1005,1 hPa 0,0 l/m 9,7 km/h (2 Bft) W-SW 247 3,3 C 3,7 C
31.01.2013 02:36 5,8 C 84 % 1004,8 hPa 0,0 l/m 25,6 km/h (4 Bft) NW 315 3,3 C 1,5 C
31.01.2013 02:41 5,8 C 84 % 1004,9 hPa 0,0 l/m 13,7 km/h (3 Bft) W 270 3,3 C 2,9 C
31.01.2013 02:46 5,8 C 84 % 1005,2 hPa 0,0 l/m 22,0 km/h (4 Bft) W 270 3,3 C 1,9 C
31.01.2013 02:51 5,8 C 84 % 1005,2 hPa 0,0 l/m 25,2 km/h (4 Bft) W 270 3,3 C 1,5 C
31.01.2013 02:56 5,8 C 84 % 1005,2 hPa 0,0 l/m 9,7 km/h (2 Bft) W 270 3,3 C 3,7 C
31.01.2013 03:01 5,8 C 82 % 1005,2 hPa 0,0 l/m 25,2 km/h (4 Bft) W-SW 247 3,0 C 1,5 C
31.01.2013 03:06 5,8 C 81 % 1005,3 hPa 0,0 l/m 21,6 km/h (4 Bft) S-SW 202 2,8 C 1,9 C
31.01.2013 03:11 5,9 C 80 % 1005,4 hPa 0,0 l/m 8,3 km/h (2 Bft) W 270 2,7 C 4,1 C
31.01.2013 03:16 5,9 C 79 % 1005,6 hPa 0,0 l/m 11,9 km/h (2 Bft) W 270 2,5 C 3,4 C
31.01.2013 03:21 5,9 C 79 % 1005,8 hPa 0,0 l/m 26,3 km/h (4 Bft) W-NW 292 2,5 C 1,5 C
31.01.2013 03:26 5,9 C 79 % 1005,8 hPa 0,0 l/m 27,4 km/h (4 Bft) W 270 2,5 C 1,4 C
31.01.2013 03:31 5,9 C 79 % 1005,6 hPa 0,0 l/m 27,7 km/h (4 Bft) W 270 2,5 C 1,4 C
31.01.2013 03:36 5,9 C 79 % 1005,4 hPa 0,0 l/m 20,9 km/h (4 Bft) W-SW 247 2,5 C 2,1 C
31.01.2013 03:41 6,0 C 78 % 1005,4 hPa 0,0 l/m 14,4 km/h (3 Bft) W-NW 292 2,5 C 3,1 C
31.01.2013 03:46 6,1 C 77 % 1005,5 hPa 0,0 l/m 11,2 km/h (2 Bft) W 270 2,4 C 3,7 C
31.01.2013 03:51 6,1 C 77 % 1005,5 hPa 0,0 l/m 20,2 km/h (4 Bft) W-NW 292 2,4 C 2,4 C
31.01.2013 03:56 6,1 C 77 % 1005,5 hPa 0,0 l/m 34,2 km/h (5 Bft) W-SW 247 2,4 C 1,2 C
31.01.2013 04:01 6,0 C 77 % 1005,5 hPa 0,0 l/m 39,6 km/h (6 Bft) W 270 2,3 C 0,7 C
31.01.2013 04:06 5,9 C 77 % 1005,6 hPa 0,0 l/m 27,7 km/h (4 Bft) SW 225 2,2 C 1,4 C
31.01.2013 04:11 6,0 C 76 % 1005,6 hPa 0,0 l/m 22,7 km/h (4 Bft) W 270 2,1 C 2,0 C
31.01.2013 04:16 6,0 C 76 % 1005,8 hPa 0,0 l/m 31,3 km/h (5 Bft) W 270 2,1 C 1,3 C
31.01.2013 04:21 6,1 C 76 % 1005,9 hPa 0,0 l/m 32,8 km/h (5 Bft) W-SW 247 2,2 C 1,3 C
31.01.2013 04:26 6,1 C 75 % 1005,9 hPa 0,0 l/m 23,8 km/h (4 Bft) W 270 2,0 C 2,0 C
31.01.2013 04:31 6,1 C 75 % 1005,9 hPa 0,0 l/m 31,7 km/h (5 Bft) W 270 2,0 C 1,3 C
31.01.2013 04:36 6,1 C 75 % 1005,9 hPa 0,0 l/m 12,6 km/h (3 Bft) W-NW 292 2,0 C 3,5 C
31.01.2013 04:41 6,1 C 75 % 1005,9 hPa 0,0 l/m 26,3 km/h (4 Bft) W 270 2,0 C 1,8 C
31.01.2013 04:46 6,2 C 75 % 1005,9 hPa 0,0 l/m 33,5 km/h (5 Bft) NW 315 2,1 C 1,3 C
31.01.2013 04:51 6,3 C 74 % 1006,0 hPa 0,0 l/m 12,2 km/h (2 Bft) W-SW 247 2,0 C 3,8 C
31.01.2013 04:56 6,3 C 74 % 1006,0 hPa 0,0 l/m 6,8 km/h (2 Bft) W-SW 247 2,0 C 5,0 C
31.01.2013 05:01 6,3 C 74 % 1005,9 hPa 0,0 l/m 27,7 km/h (4 Bft) W 270 2,0 C 1,9 C
31.01.2013 05:06 6,3 C 74 % 1005,9 hPa 0,0 l/m 42,1 km/h (6 Bft) SW 225 2,0 C 0,9 C
31.01.2013 05:11 6,3 C 74 % 1005,9 hPa 0,0 l/m 14,4 km/h (3 Bft) W-NW 292 2,0 C 3,4 C
31.01.2013 05:16 6,3 C 74 % 1005,9 hPa 0,0 l/m 17,3 km/h (3 Bft) W-SW 247 2,0 C 3,0 C
31.01.2013 05:21 6,3 C 74 % 1006,0 hPa 0,0 l/m 42,8 km/h (6 Bft) W 270 2,0 C 0,9 C
31.01.2013 05:26 6,3 C 74 % 1006,2 hPa 0,0 l/m 24,5 km/h (4 Bft) W 270 2,0 C 2,2 C
31.01.2013 05:31 6,3 C 74 % 1006,0 hPa 0,0 l/m 29,2 km/h (5 Bft) W 270 2,0 C 1,8 C
31.01.2013 05:36 6,4 C 74 % 1006,1 hPa 0,0 l/m 13,7 km/h (3 Bft) W-NW 292 2,1 C 3,7 C
31.01.2013 05:41 6,4 C 74 % 1006,2 hPa 0,0 l/m 26,3 km/h (4 Bft) W 270 2,1 C 2,2 C
31.01.2013 05:46 6,4 C 74 % 1006,0 hPa 0,0 l/m 24,5 km/h (4 Bft) W-SW 247 2,1 C 2,4 C
31.01.2013 05:51 6,4 C 74 % 1006,1 hPa 0,0 l/m 20,2 km/h (4 Bft) W-NW 292 2,1 C 2,8 C
31.01.2013 05:56 6,4 C 74 % 1006,2 hPa 0,0 l/m 26,6 km/h (4 Bft) W-SW 247 2,1 C 2,2 C
31.01.2013 06:01 6,4 C 74 % 1006,4 hPa 0,0 l/m 43,2 km/h (6 Bft) W-NW 292 2,1 C 1,0 C
31.01.2013 06:06 6,5 C 73 % 1006,4 hPa 0,0 l/m 27,7 km/h (4 Bft) W 270 2,0 C 2,2 C
31.01.2013 06:11 6,4 C 73 % 1006,4 hPa 0,0 l/m 31,0 km/h (5 Bft) W-NW 292 1,9 C 1,8 C
31.01.2013 06:16 6,4 C 73 % 1006,3 hPa 0,0 l/m 23,0 km/h (4 Bft) W 270 1,9 C 2,5 C
31.01.2013 06:21 6,4 C 73 % 1006,4 hPa 0,0 l/m 18,7 km/h (3 Bft) SW 225 1,9 C 3,0 C
31.01.2013 06:26 6,4 C 74 % 1006,4 hPa 0,0 l/m 34,9 km/h (5 Bft) W 270 2,1 C 1,5 C
31.01.2013 06:31 6,4 C 73 % 1006,5 hPa 0,0 l/m 35,3 km/h (5 Bft) W 270 1,9 C 1,5 C
31.01.2013 06:36 6,4 C 74 % 1006,7 hPa 0,0 l/m 13,7 km/h (3 Bft) N-NW 337 2,1 C 3,7 C
31.01.2013 06:41 6,5 C 74 % 1006,7 hPa 0,0 l/m 23,0 km/h (4 Bft) W 270 2,2 C 2,6 C
31.01.2013 06:46 6,4 C 74 % 1006,7 hPa 0,0 l/m 19,1 km/h (3 Bft) N-NW 337 2,1 C 2,9 C
31.01.2013 06:51 6,4 C 74 % 1006,6 hPa 0,0 l/m 8,3 km/h (2 Bft) W-SW 247 2,1 C 4,7 C
31.01.2013 06:56 6,4 C 74 % 1006,7 hPa 0,0 l/m 24,5 km/h (4 Bft) W-SW 247 2,1 C 2,4 C
31.01.2013 07:01 6,4 C 74 % 1006,8 hPa 0,0 l/m 25,9 km/h (4 Bft) NW 315 2,1 C 2,2 C
31.01.2013 07:06 6,4 C 74 % 1006,7 hPa 0,0 l/m 22,0 km/h (4 Bft) W-SW 247 2,1 C 2,6 C
31.01.2013 07:11 6,4 C 74 % 1006,9 hPa 0,0 l/m 19,4 km/h (3 Bft) NW 315 2,1 C 2,9 C
31.01.2013 07:16 6,4 C 74 % 1006,9 hPa 0,0 l/m 34,2 km/h (5 Bft) W-SW 247 2,1 C 1,6 C
31.01.2013 07:21 6,4 C 73 % 1007,0 hPa 0,0 l/m 12,2 km/h (2 Bft) S-SW 202 1,9 C 3,9 C
31.01.2013 07:26 6,4 C 74 % 1007,1 hPa 0,0 l/m 29,5 km/h (5 Bft) W-NW 292 2,1 C 1,9 C
31.01.2013 07:31 6,4 C 74 % 1007,2 hPa 0,0 l/m 18,4 km/h (3 Bft) W 270 2,1 C 3,0 C
31.01.2013 07:36 6,3 C 74 % 1007,3 hPa 0,0 l/m 36,0 km/h (5 Bft) W 270 2,0 C 1,3 C
31.01.2013 07:41 6,3 C 74 % 1007,2 hPa 0,0 l/m 14,4 km/h (3 Bft) W-NW 292 2,0 C 3,4 C
31.01.2013 07:46 6,3 C 73 % 1007,3 hPa 0,0 l/m 25,6 km/h (4 Bft) W-SW 247 1,8 C 2,1 C
31.01.2013 07:51 6,3 C 73 % 1007,2 hPa 0,0 l/m 13,3 km/h (3 Bft) W-SW 247 1,8 C 3,6 C
31.01.2013 07:56 6,3 C 73 % 1007,3 hPa 0,0 l/m 24,1 km/h (4 Bft) SW 225 1,8 C 2,3 C
31.01.2013 08:01 6,3 C 73 % 1007,3 hPa 0,0 l/m 19,4 km/h (3 Bft) W 270 1,8 C 2,8 C
31.01.2013 08:06 6,3 C 73 % 1007,3 hPa 0,0 l/m 14,0 km/h (3 Bft) W 270 1,8 C 3,5 C
31.01.2013 08:11 6,3 C 73 % 1007,4 hPa 0,0 l/m 20,9 km/h (4 Bft) W 270 1,8 C 2,6 C
31.01.2013 08:16 6,3 C 73 % 1007,4 hPa 0,0 l/m 11,5 km/h (2 Bft) W-NW 292 1,8 C 3,9 C
31.01.2013 08:21 6,2 C 73 % 1007,5 hPa 0,0 l/m 19,1 km/h (3 Bft) W 270 1,7 C 2,7 C
31.01.2013 08:26 6,3 C 73 % 1007,5 hPa 0,0 l/m 27,4 km/h (4 Bft) W-NW 292 1,8 C 2,0 C
31.01.2013 08:31 6,2 C 73 % 1007,5 hPa 0,0 l/m 30,2 km/h (5 Bft) W-SW 247 1,7 C 1,6 C
31.01.2013 08:36 6,3 C 73 % 1007,6 hPa 0,0 l/m 39,2 km/h (6 Bft) W 270 1,8 C 1,1 C
31.01.2013 08:41 6,3 C 73 % 1007,5 hPa 0,0 l/m 25,6 km/h (4 Bft) W 270 1,8 C 2,1 C
31.01.2013 08:46 6,3 C 72 % 1007,7 hPa 0,0 l/m 39,6 km/h (6 Bft) W 270 1,6 C 1,1 C
31.01.2013 08:51 6,3 C 72 % 1007,8 hPa 0,0 l/m 12,2 km/h (2 Bft) W-NW 292 1,6 C 3,8 C
31.01.2013 08:56 6,4 C 72 % 1007,8 hPa 0,0 l/m 24,5 km/h (4 Bft) W 270 1,7 C 2,4 C
31.01.2013 09:01 6,4 C 72 % 1007,7 hPa 0,0 l/m 7,6 km/h (2 Bft) W-SW 247 1,7 C 4,9 C
31.01.2013 09:06 6,3 C 72 % 1007,6 hPa 0,0 l/m 19,1 km/h (3 Bft) W 270 1,6 C 2,8 C
31.01.2013 09:11 6,3 C 72 % 1007,7 hPa 0,0 l/m 34,2 km/h (5 Bft) W 270 1,6 C 1,4 C
31.01.2013 09:16 6,3 C 72 % 1007,6 hPa 0,0 l/m 15,1 km/h (3 Bft) W-NW 292 1,6 C 3,3 C
31.01.2013 09:21 6,3 C 72 % 1007,6 hPa 0,0 l/m 23,4 km/h (4 Bft) NW 315 1,6 C 2,3 C
31.01.2013 09:26 6,4 C 72 % 1007,7 hPa 0,0 l/m 20,5 km/h (4 Bft) W 270 1,7 C 2,8 C
31.01.2013 09:31 6,4 C 72 % 1007,9 hPa 0,0 l/m 14,4 km/h (3 Bft) NW 315 1,7 C 3,6 C
31.01.2013 09:36 6,5 C 72 % 1007,9 hPa 0,0 l/m 25,6 km/h (4 Bft) W 270 1,8 C 2,4 C
31.01.2013 09:41 6,4 C 72 % 1007,9 hPa 0,0 l/m 20,5 km/h (4 Bft) W 270 1,7 C 2,8 C
31.01.2013 09:46 6,4 C 72 % 1008,0 hPa 0,0 l/m 22,0 km/h (4 Bft) S-SW 202 1,7 C 2,6 C
31.01.2013 09:51 6,4 C 72 % 1007,9 hPa 0,0 l/m 19,8 km/h (3 Bft) W 270 1,7 C 2,9 C
31.01.2013 09:56 6,4 C 72 % 1008,0 hPa 0,0 l/m 22,0 km/h (4 Bft) W 270 1,7 C 2,6 C
31.01.2013 10:01 6,4 C 72 % 1008,0 hPa 0,0 l/m 15,8 km/h (3 Bft) W-SW 247 1,7 C 3,4 C
31.01.2013 10:06 6,4 C 73 % 1008,0 hPa 0,0 l/m 19,8 km/h (3 Bft) W 270 1,9 C 2,9 C
31.01.2013 10:11 6,4 C 73 % 1007,7 hPa 0,0 l/m 16,9 km/h (3 Bft) SW 225 1,9 C 3,2 C
31.01.2013 10:16 6,4 C 73 % 1007,8 hPa 0,0 l/m 19,8 km/h (3 Bft) W 270 1,9 C 2,9 C
31.01.2013 10:21 6,4 C 73 % 1007,7 hPa 0,0 l/m 10,4 km/h (2 Bft) SW 225 1,9 C 4,3 C
31.01.2013 10:26 6,4 C 73 % 1007,8 hPa 0,0 l/m 14,4 km/h (3 Bft) NW 315 1,9 C 3,6 C
31.01.2013 10:31 6,5 C 73 % 1008,0 hPa 0,0 l/m 19,1 km/h (3 Bft) W-SW 247 2,0 C 3,1 C
31.01.2013 10:36 6,5 C 73 % 1008,1 hPa 0,0 l/m 12,2 km/h (2 Bft) W 270 2,0 C 4,0 C
31.01.2013 10:41 6,6 C 73 % 1007,8 hPa 0,0 l/m 17,6 km/h (3 Bft) W 270 2,1 C 3,4 C
31.01.2013 10:46 6,6 C 73 % 1007,7 hPa 0,0 l/m 22,0 km/h (4 Bft) W-NW 292 2,1 C 2,9 C
31.01.2013 10:51 6,6 C 74 % 1007,7 hPa 0,0 l/m 17,3 km/h (3 Bft) SW 225 2,3 C 3,4 C
31.01.2013 10:56 6,7 C 74 % 1007,4 hPa 0,0 l/m 9,0 km/h (2 Bft) NW 315 2,4 C 4,9 C
31.01.2013 11:01 6,8 C 74 % 1007,4 hPa 0,0 l/m 12,6 km/h (3 Bft) W-SW 247 2,5 C 4,3 C
31.01.2013 11:06 6,8 C 73 % 1007,2 hPa 0,0 l/m 18,4 km/h (3 Bft) NW 315 2,3 C 3,5 C
31.01.2013 11:11 6,8 C 74 % 1007,3 hPa 0,0 l/m 9,7 km/h (2 Bft) W 270 2,5 C 4,9 C
31.01.2013 11:16 6,8 C 74 % 1007,3 hPa 0,0 l/m 8,3 km/h (2 Bft) W-SW 247 2,5 C 5,2 C
31.01.2013 11:21 6,8 C 74 % 1007,1 hPa 0,0 l/m 16,6 km/h (3 Bft) W-NW 292 2,5 C 3,7 C
31.01.2013 11:26 6,8 C 74 % 1006,9 hPa 0,0 l/m 8,3 km/h (2 Bft) W-SW 247 2,5 C 5,2 C
31.01.2013 11:31 6,9 C 74 % 1007,0 hPa 0,0 l/m 17,6 km/h (3 Bft) W-NW 292 2,6 C 3,7 C
31.01.2013 11:36 6,9 C 73 % 1006,9 hPa 0,0 l/m 10,8 km/h (2 Bft) NW 315 2,4 C 4,8 C
31.01.2013 11:41 6,9 C 73 % 1006,9 hPa 0,0 l/m 27,0 km/h (4 Bft) W 270 2,4 C 2,8 C
31.01.2013 11:46 7,0 C 72 % 1006,7 hPa 0,0 l/m 22,7 km/h (4 Bft) W 270 2,3 C 3,3 C
31.01.2013 11:51 7,0 C 72 % 1006,6 hPa 0,0 l/m 6,8 km/h (2 Bft) W-NW 292 2,3 C 5,8 C
31.01.2013 11:56 6,9 C 72 % 1006,6 hPa 0,0 l/m 13,0 km/h (3 Bft) NW 315 2,2 C 4,4 C
31.01.2013 12:01 7,0 C 72 % 1006,5 hPa 0,0 l/m 25,6 km/h (4 Bft) SW 225 2,3 C 3,0 C
31.01.2013 12:06 6,9 C 72 % 1006,6 hPa 0,0 l/m 28,1 km/h (4 Bft) W 270 2,2 C 2,7 C
31.01.2013 12:11 6,9 C 72 % 1006,5 hPa 0,0 l/m 32,8 km/h (5 Bft) W 270 2,2 C 2,3 C
31.01.2013 12:16 7,0 C 72 % 1006,6 hPa 0,0 l/m 26,3 km/h (4 Bft) W 270 2,3 C 3,0 C
31.01.2013 12:21 7,1 C 72 % 1006,7 hPa 0,0 l/m 28,4 km/h (4 Bft) W 270 2,4 C 2,9 C
31.01.2013 12:26 7,2 C 73 % 1006,7 hPa 0,0 l/m 10,4 km/h (2 Bft) W-SW 247 2,7 C 5,2 C
31.01.2013 12:31 7,4 C 72 % 1006,7 hPa 0,0 l/m 29,2 km/h (5 Bft) W-SW 247 2,7 C 3,2 C
31.01.2013 12:36 7,6 C 72 % 1006,4 hPa 0,0 l/m 19,8 km/h (3 Bft) S-SW 202 2,9 C 4,4 C
31.01.2013 12:41 7,9 C 71 % 1006,4 hPa 0,0 l/m 39,2 km/h (6 Bft) W 270 3,0 C 3,2 C
31.01.2013 12:46 7,9 C 71 % 1006,2 hPa 0,0 l/m 24,1 km/h (4 Bft) W 270 3,0 C 4,3 C
31.01.2013 12:51 7,9 C 69 % 1006,1 hPa 0,0 l/m 22,0 km/h (4 Bft) W 270 2,6 C 4,5 C
31.01.2013 12:56 7,8 C 70 % 1006,2 hPa 0,0 l/m 13,7 km/h (3 Bft) SW 225 2,7 C 5,4 C
31.01.2013 13:01 7,6 C 70 % 1005,9 hPa 0,0 l/m 23,0 km/h (4 Bft) W-NW 292 2,5 C 4,0 C
31.01.2013 13:06 7,6 C 71 % 1005,8 hPa 0,0 l/m 31,7 km/h (5 Bft) W 270 2,7 C 3,3 C
31.01.2013 13:11 7,6 C 71 % 1005,7 hPa 0,0 l/m 33,8 km/h (5 Bft) W 270 2,7 C 3,2 C
31.01.2013 13:16 7,6 C 71 % 1005,8 hPa 0,0 l/m 16,2 km/h (3 Bft) W 270 2,7 C 4,8 C
31.01.2013 13:21 7,8 C 71 % 1005,8 hPa 0,0 l/m 22,0 km/h (4 Bft) W 270 2,9 C 4,4 C
31.01.2013 13:26 7,8 C 71 % 1005,8 hPa 0,0 l/m 19,4 km/h (3 Bft) W 270 2,9 C 4,7 C
31.01.2013 13:31 7,6 C 71 % 1005,6 hPa 0,0 l/m 11,2 km/h (2 Bft) W-NW 292 2,7 C 5,5 C
31.01.2013 13:36 7,6 C 71 % 1005,5 hPa 0,0 l/m 17,6 km/h (3 Bft) W 270 2,7 C 4,6 C
31.01.2013 13:41 7,6 C 71 % 1005,2 hPa 0,0 l/m 26,3 km/h (4 Bft) W 270 2,7 C 3,7 C
31.01.2013 13:46 7,6 C 71 % 1005,0 hPa 0,0 l/m 14,4 km/h (3 Bft) W-NW 292 2,7 C 5,0 C
31.01.2013 13:51 7,6 C 71 % 1004,8 hPa 0,0 l/m 14,0 km/h (3 Bft) W 270 2,7 C 5,1 C
31.01.2013 13:56 7,6 C 71 % 1004,7 hPa 0,0 l/m 28,1 km/h (4 Bft) W-SW 247 2,7 C 3,6 C
31.01.2013 14:01 7,6 C 71 % 1004,6 hPa 0,0 l/m 8,6 km/h (2 Bft) W-SW 247 2,7 C 6,1 C
31.01.2013 14:06 7,6 C 71 % 1004,7 hPa 0,0 l/m 18,4 km/h (3 Bft) W 270 2,7 C 4,5 C
31.01.2013 14:11 7,5 C 71 % 1004,2 hPa 0,0 l/m 16,6 km/h (3 Bft) W 270 2,6 C 4,6 C
31.01.2013 14:16 7,5 C 71 % 1004,1 hPa 0,0 l/m 27,4 km/h (4 Bft) W 270 2,6 C 3,5 C
31.01.2013 14:21 7,6 C 71 % 1003,9 hPa 0,0 l/m 27,0 km/h (4 Bft) W-NW 292 2,7 C 3,7 C
31.01.2013 14:26 7,6 C 71 % 1003,9 hPa 0,0 l/m 27,0 km/h (4 Bft) W-SW 247 2,7 C 3,7 C
31.01.2013 14:31 7,6 C 71 % 1003,8 hPa 0,0 l/m 19,4 km/h (3 Bft) W 270 2,7 C 4,4 C
31.01.2013 14:36 7,6 C 71 % 1003,6 hPa 0,0 l/m 13,3 km/h (3 Bft) W-NW 292 2,7 C 5,2 C
31.01.2013 14:41 7,5 C 71 % 1003,7 hPa 0,0 l/m 16,9 km/h (3 Bft) W-SW 247 2,6 C 4,6 C
31.01.2013 14:46 7,4 C 71 % 1003,6 hPa 0,0 l/m 31,3 km/h (5 Bft) W 270 2,5 C 3,1 C
31.01.2013 14:51 7,4 C 71 % 1003,4 hPa 0,0 l/m 28,1 km/h (4 Bft) W 270 2,5 C 3,3 C
31.01.2013 14:56 7,3 C 70 % 1003,5 hPa 0,0 l/m 14,0 km/h (3 Bft) SW 225 2,2 C 4,7 C
31.01.2013 15:01 7,3 C 70 % 1003,6 hPa 0,0 l/m 29,5 km/h (5 Bft) W 270 2,2 C 3,1 C
31.01.2013 15:06 7,3 C 70 % 1003,3 hPa 0,0 l/m 22,7 km/h (4 Bft) W-SW 247 2,2 C 3,7 C
31.01.2013 15:11 7,3 C 71 % 1003,3 hPa 0,0 l/m 23,4 km/h (4 Bft) W-SW 247 2,4 C 3,6 C
31.01.2013 15:16 7,3 C 71 % 1003,3 hPa 0,0 l/m 24,8 km/h (4 Bft) W 270 2,4 C 3,5 C
31.01.2013 15:21 7,2 C 71 % 1003,2 hPa 0,0 l/m 28,1 km/h (4 Bft) W 270 2,3 C 3,1 C
31.01.2013 15:26 7,2 C 71 % 1003,2 hPa 0,0 l/m 34,6 km/h (5 Bft) W 270 2,3 C 2,6 C
31.01.2013 15:31 7,2 C 71 % 1003,0 hPa 0,0 l/m 28,1 km/h (4 Bft) W 270 2,3 C 3,1 C
31.01.2013 15:36 7,1 C 71 % 1003,0 hPa 0,0 l/m 28,8 km/h (4 Bft) W 270 2,2 C 2,9 C
31.01.2013 15:41 6,9 C 72 % 1002,8 hPa 0,0 l/m 34,6 km/h (5 Bft) W-SW 247 2,2 C 2,2 C
31.01.2013 15:46 6,9 C 73 % 1002,8 hPa 0,0 l/m 22,7 km/h (4 Bft) W 270 2,4 C 3,2 C
31.01.2013 15:51 6,9 C 73 % 1002,6 hPa 0,0 l/m 36,7 km/h (5 Bft) W 270 2,4 C 2,0 C
31.01.2013 15:56 6,7 C 74 % 1002,6 hPa 0,0 l/m 47,2 km/h (6 Bft) W-NW 292 2,4 C 1,1 C
31.01.2013 16:01 6,6 C 75 % 1002,5 hPa 0,0 l/m 19,8 km/h (3 Bft) W 270 2,5 C 3,1 C
31.01.2013 16:06 6,6 C 75 % 1002,4 hPa 0,0 l/m 24,5 km/h (4 Bft) SW 225 2,5 C 2,6 C
31.01.2013 16:11 6,5 C 75 % 1002,5 hPa 0,0 l/m 23,0 km/h (4 Bft) W 270 2,4 C 2,6 C
31.01.2013 16:16 6,5 C 76 % 1002,5 hPa 0,0 l/m 27,4 km/h (4 Bft) W 270 2,6 C 2,2 C
31.01.2013 16:21 6,4 C 76 % 1002,5 hPa 0,0 l/m 25,2 km/h (4 Bft) SW 225 2,5 C 2,3 C
31.01.2013 16:26 6,4 C 77 % 1002,5 hPa 0,0 l/m 23,0 km/h (4 Bft) W 270 2,7 C 2,5 C
31.01.2013 16:31 6,4 C 77 % 1002,4 hPa 0,0 l/m 37,4 km/h (5 Bft) W 270 2,7 C 1,3 C
31.01.2013 16:36 6,3 C 78 % 1002,5 hPa 0,0 l/m 35,6 km/h (5 Bft) W 270 2,8 C 1,3 C
31.01.2013 16:41 6,3 C 78 % 1002,4 hPa 0,0 l/m 14,0 km/h (3 Bft) W 270 2,8 C 3,5 C
31.01.2013 16:46 6,3 C 78 % 1002,4 hPa 0,0 l/m 20,9 km/h (4 Bft) SW 225 2,8 C 2,6 C
31.01.2013 16:51 6,3 C 78 % 1002,3 hPa 0,0 l/m 31,7 km/h (5 Bft) W-NW 292 2,8 C 1,6 C
31.01.2013 16:56 6,3 C 78 % 1002,3 hPa 0,0 l/m 26,6 km/h (4 Bft) W 270 2,8 C 2,0 C
31.01.2013 17:01 6,3 C 78 % 1002,3 hPa 0,0 l/m 36,7 km/h (5 Bft) W 270 2,8 C 1,2 C
31.01.2013 17:06 6,3 C 78 % 1002,2 hPa 0,0 l/m 43,9 km/h (6 Bft) W 270 2,8 C 0,8 C
31.01.2013 17:11 6,2 C 78 % 1002,2 hPa 0,0 l/m 11,5 km/h (2 Bft) W-SW 247 2,7 C 3,8 C
31.01.2013 17:16 6,1 C 78 % 1002,2 hPa 0,0 l/m 26,6 km/h (4 Bft) W-SW 247 2,6 C 1,8 C
31.01.2013 17:21 6,1 C 79 % 1002,2 hPa 0,0 l/m 27,7 km/h (4 Bft) W-SW 247 2,7 C 1,7 C
31.01.2013 17:26 6,1 C 79 % 1002,2 hPa 0,0 l/m 40,3 km/h (6 Bft) W 270 2,7 C 0,7 C
31.01.2013 17:31 5,9 C 79 % 1002,0 hPa 0,0 l/m 16,2 km/h (3 Bft) W 270 2,5 C 2,7 C
31.01.2013 17:36 5,9 C 79 % 1002,2 hPa 0,0 l/m 32,8 km/h (5 Bft) W-SW 247 2,5 C 1,0 C
31.01.2013 17:41 5,8 C 80 % 1002,0 hPa 0,0 l/m 28,4 km/h (4 Bft) W 270 2,6 C 1,2 C
31.01.2013 17:46 5,8 C 80 % 1001,9 hPa 0,0 l/m 38,9 km/h (6 Bft) W 270 2,6 C 0,4 C
31.01.2013 17:51 5,8 C 81 % 1001,9 hPa 0,0 l/m 19,1 km/h (3 Bft) W 270 2,8 C 2,2 C
31.01.2013 17:56 5,6 C 81 % 1001,8 hPa 0,0 l/m 25,2 km/h (4 Bft) W-SW 247 2,6 C 1,3 C
31.01.2013 18:01 5,5 C 81 % 1002,0 hPa 0,0 l/m 29,2 km/h (5 Bft) W-SW 247 2,5 C 0,8 C
31.01.2013 18:06 5,5 C 82 % 1001,9 hPa 0,0 l/m 18,7 km/h (3 Bft) W-SW 247 2,7 C 1,9 C
31.01.2013 18:11 5,4 C 82 % 1002,0 hPa 0,0 l/m 31,3 km/h (5 Bft) W-SW 247 2,6 C 0,5 C
31.01.2013 18:16 5,3 C 83 % 1002,0 hPa 0,0 l/m 32,4 km/h (5 Bft) W 270 2,7 C 0,2 C
31.01.2013 18:21 5,3 C 83 % 1002,2 hPa 0,0 l/m 37,1 km/h (5 Bft) W 270 2,7 C -0,1 C
31.01.2013 18:26 5,3 C 84 % 1002,2 hPa 0,5 l/m 27,7 km/h (4 Bft) W 270 2,8 C 0,6 C
31.01.2013 18:31 5,3 C 85 % 1002,1 hPa 0,0 l/m 14,8 km/h (3 Bft) W 270 3,0 C 2,1 C
31.01.2013 18:36 5,2 C 85 % 1002,2 hPa 0,0 l/m 11,5 km/h (2 Bft) W 270 2,9 C 2,6 C
31.01.2013 18:41 5,2 C 85 % 1002,0 hPa 0,0 l/m 25,6 km/h (4 Bft) W-SW 247 2,9 C 0,7 C
31.01.2013 18:46 5,2 C 85 % 1002,0 hPa 0,0 l/m 19,8 km/h (3 Bft) W 270 2,9 C 1,3 C
31.01.2013 18:51 5,2 C 85 % 1001,9 hPa 0,0 l/m 18,7 km/h (3 Bft) W 270 2,9 C 1,5 C
31.01.2013 18:56 5,3 C 85 % 1002,1 hPa 0,0 l/m 11,5 km/h (2 Bft) W 270 3,0 C 2,7 C
31.01.2013 19:01 5,3 C 84 % 1002,2 hPa 0,0 l/m 14,8 km/h (3 Bft) W-SW 247 2,8 C 2,1 C
31.01.2013 19:06 5,3 C 84 % 1002,1 hPa 0,0 l/m 30,2 km/h (5 Bft) W-NW 292 2,8 C 0,4 C
31.01.2013 19:11 5,3 C 84 % 1002,2 hPa 0,0 l/m 14,0 km/h (3 Bft) W-SW 247 2,8 C 2,3 C
31.01.2013 19:16 5,3 C 84 % 1002,2 hPa 0,0 l/m 29,9 km/h (5 Bft) W-SW 247 2,8 C 0,5 C
31.01.2013 19:21 5,4 C 84 % 1002,3 hPa 0,0 l/m 12,6 km/h (3 Bft) W-SW 247 2,9 C 2,6 C
31.01.2013 19:26 5,4 C 84 % 1002,2 hPa 0,0 l/m 14,8 km/h (3 Bft) SW 225 2,9 C 2,3 C
31.01.2013 19:31 5,5 C 84 % 1002,2 hPa 0,0 l/m 16,9 km/h (3 Bft) W 270 3,0 C 2,1 C
31.01.2013 19:36 5,6 C 84 % 1002,2 hPa 0,0 l/m 24,5 km/h (4 Bft) W 270 3,1 C 1,3 C
31.01.2013 19:41 5,6 C 84 % 1002,1 hPa 0,0 l/m 21,6 km/h (4 Bft) W-NW 292 3,1 C 1,6 C
31.01.2013 19:46 5,5 C 84 % 1002,2 hPa 0,0 l/m 19,1 km/h (3 Bft) NW 315 3,0 C 1,8 C
31.01.2013 19:51 5,4 C 84 % 1002,2 hPa 0,0 l/m 11,2 km/h (2 Bft) SW 225 2,9 C 2,9 C
31.01.2013 19:56 5,4 C 84 % 1002,1 hPa 0,0 l/m 14,0 km/h (3 Bft) W 270 2,9 C 2,4 C
31.01.2013 20:01 5,3 C 85 % 1002,0 hPa 0,0 l/m 11,5 km/h (2 Bft) SW 225 3,0 C 2,7 C
31.01.2013 20:06 5,3 C 85 % 1002,1 hPa 0,0 l/m 14,4 km/h (3 Bft) W-SW 247 3,0 C 2,2 C
31.01.2013 20:11 5,3 C 85 % 1002,1 hPa 0,0 l/m 17,3 km/h (3 Bft) W-SW 247 3,0 C 1,8 C
31.01.2013 20:16 5,3 C 85 % 1002,1 hPa 0,0 l/m 11,9 km/h (2 Bft) W-SW 247 3,0 C 2,6 C
31.01.2013 20:21 5,2 C 85 % 1002,0 hPa 0,0 l/m 18,4 km/h (3 Bft) W 270 2,9 C 1,5 C
31.01.2013 20:26 5,2 C 86 % 1002,0 hPa 0,0 l/m 16,9 km/h (3 Bft) W 270 3,1 C 1,7 C
31.01.2013 20:31 5,1 C 86 % 1002,2 hPa 0,0 l/m 22,7 km/h (4 Bft) W 270 3,0 C 0,9 C
31.01.2013 20:36 5,2 C 86 % 1002,3 hPa 0,0 l/m 24,5 km/h (4 Bft) W 270 3,1 C 0,8 C
31.01.2013 20:41 5,3 C 86 % 1002,3 hPa 0,0 l/m 36,0 km/h (5 Bft) W-SW 247 3,2 C -0,0 C
31.01.2013 20:46 5,4 C 85 % 1002,3 hPa 0,0 l/m 5,4 km/h (1 Bft) W 270 3,1 C 4,4 C
31.01.2013 20:51 5,6 C 85 % 1002,4 hPa 0,0 l/m 20,5 km/h (4 Bft) W-SW 247 3,3 C 1,8 C
31.01.2013 20:56 5,8 C 84 % 1002,3 hPa 0,0 l/m 28,4 km/h (4 Bft) W 270 3,3 C 1,2 C
31.01.2013 21:01 5,8 C 84 % 1002,3 hPa 0,0 l/m 23,8 km/h (4 Bft) NW 315 3,3 C 1,7 C
31.01.2013 21:06 5,8 C 84 % 1002,4 hPa 0,0 l/m 29,5 km/h (5 Bft) W 270 3,3 C 1,1 C
31.01.2013 21:11 5,8 C 84 % 1002,5 hPa 0,0 l/m 11,5 km/h (2 Bft) W-NW 292 3,3 C 3,3 C
31.01.2013 21:16 5,8 C 84 % 1002,5 hPa 0,0 l/m 8,6 km/h (2 Bft) W 270 3,3 C 3,9 C
31.01.2013 21:21 5,8 C 84 % 1002,4 hPa 0,0 l/m 23,0 km/h (4 Bft) W 270 3,3 C 1,7 C
31.01.2013 21:26 5,8 C 84 % 1002,4 hPa 0,0 l/m 20,5 km/h (4 Bft) W 270 3,3 C 2,0 C
31.01.2013 21:31 5,8 C 84 % 1002,6 hPa 0,0 l/m 18,7 km/h (3 Bft) W 270 3,3 C 2,2 C
31.01.2013 21:36 5,9 C 83 % 1002,6 hPa 0,0 l/m 18,4 km/h (3 Bft) W-SW 247 3,2 C 2,4 C
31.01.2013 21:41 5,9 C 83 % 1002,6 hPa 0,0 l/m 11,5 km/h (2 Bft) W 270 3,2 C 3,4 C
31.01.2013 21:46 5,9 C 82 % 1002,6 hPa 0,0 l/m 18,7 km/h (3 Bft) O-NO 67 3,1 C 2,4 C
31.01.2013 21:51 6,1 C 82 % 1002,6 hPa 0,0 l/m 7,2 km/h (2 Bft) NW 315 3,3 C 4,6 C
31.01.2013 21:56 6,1 C 81 % 1002,6 hPa 0,0 l/m 16,2 km/h (3 Bft) W-NW 292 3,1 C 2,9 C
31.01.2013 22:01 6,3 C 80 % 1002,6 hPa 0,0 l/m 7,2 km/h (2 Bft) W 270 3,1 C 4,9 C
31.01.2013 22:06 6,3 C 80 % 1002,5 hPa 0,0 l/m 24,1 km/h (4 Bft) W 270 3,1 C 2,3 C
31.01.2013 22:11 6,3 C 80 % 1002,6 hPa 0,0 l/m 13,0 km/h (3 Bft) SW 225 3,1 C 3,7 C
31.01.2013 22:16 6,3 C 79 % 1002,6 hPa 0,0 l/m 31,3 km/h (5 Bft) W-SW 247 2,9 C 1,6 C
31.01.2013 22:21 6,3 C 79 % 1002,4 hPa 0,0 l/m 20,5 km/h (4 Bft) W-SW 247 2,9 C 2,7 C
31.01.2013 22:26 6,3 C 79 % 1002,5 hPa 0,0 l/m 10,4 km/h (2 Bft) W 270 2,9 C 4,1 C
31.01.2013 22:31 6,3 C 79 % 1002,5 hPa 0,0 l/m 46,8 km/h (6 Bft) W-NW 292 2,9 C 0,6 C
31.01.2013 22:36 6,3 C 79 % 1002,5 hPa 0,0 l/m 20,5 km/h (4 Bft) W 270 2,9 C 2,7 C
31.01.2013 22:41 6,4 C 78 % 1002,3 hPa 0,0 l/m 14,0 km/h (3 Bft) SW 225 2,8 C 3,6 C
31.01.2013 22:46 6,4 C 78 % 1002,4 hPa 0,0 l/m 29,5 km/h (5 Bft) W 270 2,8 C 1,9 C
31.01.2013 22:51 6,4 C 78 % 1002,3 hPa 0,0 l/m 9,4 km/h (2 Bft) SW 225 2,8 C 4,5 C
31.01.2013 22:56 6,5 C 77 % 1002,2 hPa 0,0 l/m 18,0 km/h (3 Bft) W 270 2,8 C 3,2 C
31.01.2013 23:01 6,5 C 76 % 1002,2 hPa 0,0 l/m 19,8 km/h (3 Bft) W-SW 247 2,6 C 3,0 C
31.01.2013 23:06 6,5 C 76 % 1002,4 hPa 0,0 l/m 16,6 km/h (3 Bft) N-NW 337 2,6 C 3,4 C
31.01.2013 23:11 6,5 C 75 % 1002,4 hPa 0,0 l/m 20,9 km/h (4 Bft) W-NW 292 2,4 C 2,9 C
31.01.2013 23:16 6,6 C 75 % 1002,4 hPa 0,0 l/m 19,8 km/h (3 Bft) W-NW 292 2,5 C 3,1 C
31.01.2013 23:21 6,6 C 75 % 1002,2 hPa 0,0 l/m 17,3 km/h (3 Bft) NW 315 2,5 C 3,4 C
31.01.2013 23:26 6,7 C 73 % 1002,3 hPa 0,0 l/m 28,8 km/h (4 Bft) W 270 2,2 C 2,4 C
31.01.2013 23:31 6,8 C 73 % 1002,5 hPa 0,0 l/m 15,8 km/h (3 Bft) W-NW 292 2,3 C 3,9 C
31.01.2013 23:36 6,8 C 73 % 1002,3 hPa 0,0 l/m 29,9 km/h (5 Bft) W 270 2,3 C 2,4 C
31.01.2013 23:41 6,8 C 73 % 1002,3 hPa 0,0 l/m 23,0 km/h (4 Bft) W 270 2,3 C 3,0 C
31.01.2013 23:46 6,8 C 73 % 1002,1 hPa 0,0 l/m 32,4 km/h (5 Bft) W 270 2,3 C 2,2 C
31.01.2013 23:51 6,8 C 73 % 1002,3 hPa 0,0 l/m 11,2 km/h (2 Bft) SW 225 2,3 C 4,6 C
31.01.2013 23:56 6,8 C 74 % 1002,3 hPa 0,0 l/m 14,0 km/h (3 Bft) W-SW 247 2,5 C 4,1 C
_ Min-Zeit 01:06 12:51 17:56 - 20:46 - - 08:46 01:46
Minimum _ 5,0 C 69 % 1001,8 hPa - 5,4 km/h (1 Bft) - - 1,6 C -0,1 C
_ Max-Zeit 12:41 00:31 10:36 00:11 15:56 - - 00:06 14:01
Maximum _ 7,9 C 87 % 1008,1 hPa 1,0 l/m 47,2 km/h
W-NW (6 Bft)
- - 3,9 C 6,1 C
Durchschnitt _ 6,3 C 77 % 1004,7 hPa #3,6 l/m 21,9 km/h (4 Bft) W - 2,6 C 2,6 C
(c) by David Heller